sensor_id;sensor_type;location;lat;lon;timestamp;P1;durP1;ratioP1;P2;durP2;ratioP2
32934;SDS011;19292;51.532;7.650;2024-01-11T00:00:12;8.35;;;5.53;;
32934;SDS011;19292;51.532;7.650;2024-01-11T00:02:39;17.50;;;7.90;;
32934;SDS011;19292;51.532;7.650;2024-01-11T00:05:10;4.32;;;4.03;;
32934;SDS011;19292;51.532;7.650;2024-01-11T00:07:38;5.40;;;4.97;;
32934;SDS011;19292;51.532;7.650;2024-01-11T00:10:03;7.55;;;4.63;;
32934;SDS011;19292;51.532;7.650;2024-01-11T00:12:31;5.25;;;4.65;;
32934;SDS011;19292;51.532;7.650;2024-01-11T00:14:57;5.75;;;5.15;;
32934;SDS011;19292;51.532;7.650;2024-01-11T00:17:23;5.43;;;4.40;;
32934;SDS011;19292;51.532;7.650;2024-01-11T00:19:49;6.70;;;5.45;;
32934;SDS011;19292;51.532;7.650;2024-01-11T00:22:15;5.75;;;5.03;;
32934;SDS011;19292;51.532;7.650;2024-01-11T00:24:42;4.82;;;3.53;;
32934;SDS011;19292;51.532;7.650;2024-01-11T00:27:10;5.78;;;5.25;;
32934;SDS011;19292;51.532;7.650;2024-01-11T00:29:38;8.38;;;6.65;;
32934;SDS011;19292;51.532;7.650;2024-01-11T00:32:05;8.65;;;6.50;;
32934;SDS011;19292;51.532;7.650;2024-01-11T00:34:31;3.10;;;2.97;;
32934;SDS011;19292;51.532;7.650;2024-01-11T00:36:58;8.45;;;3.70;;
32934;SDS011;19292;51.532;7.650;2024-01-11T00:39:27;2.88;;;2.70;;
32934;SDS011;19292;51.532;7.650;2024-01-11T00:41:54;3.00;;;2.80;;
32934;SDS011;19292;51.532;7.650;2024-01-11T00:44:20;5.43;;;4.90;;
32934;SDS011;19292;51.532;7.650;2024-01-11T00:46:45;2.83;;;2.63;;
32934;SDS011;19292;51.532;7.650;2024-01-11T00:49:11;3.63;;;3.10;;
32934;SDS011;19292;51.532;7.650;2024-01-11T00:51:39;5.32;;;4.88;;
32934;SDS011;19292;51.532;7.650;2024-01-11T00:54:04;2.33;;;2.22;;
32934;SDS011;19292;51.532;7.650;2024-01-11T00:56:35;4.97;;;3.50;;
32934;SDS011;19292;51.532;7.650;2024-01-11T00:59:00;4.45;;;3.92;;
32934;SDS011;19292;51.532;7.650;2024-01-11T01:01:26;4.65;;;3.55;;
32934;SDS011;19292;51.532;7.650;2024-01-11T01:03:54;3.33;;;3.03;;
32934;SDS011;19292;51.532;7.650;2024-01-11T01:06:19;6.53;;;5.22;;
32934;SDS011;19292;51.532;7.650;2024-01-11T01:08:44;4.57;;;4.13;;
32934;SDS011;19292;51.532;7.650;2024-01-11T01:11:15;5.47;;;4.18;;
32934;SDS011;19292;51.532;7.650;2024-01-11T01:13:42;5.80;;;5.25;;
32934;SDS011;19292;51.532;7.650;2024-01-11T01:16:08;7.65;;;4.93;;
32934;SDS011;19292;51.532;7.650;2024-01-11T01:18:35;7.10;;;4.05;;
32934;SDS011;19292;51.532;7.650;2024-01-11T01:21:01;4.65;;;4.32;;
32934;SDS011;19292;51.532;7.650;2024-01-11T01:23:31;6.90;;;6.40;;
32934;SDS011;19292;51.532;7.650;2024-01-11T01:25:57;3.22;;;2.55;;
32934;SDS011;19292;51.532;7.650;2024-01-11T01:28:26;4.07;;;3.35;;
32934;SDS011;19292;51.532;7.650;2024-01-11T01:30:56;1.88;;;1.77;;
32934;SDS011;19292;51.532;7.650;2024-01-11T01:33:24;3.55;;;2.70;;
32934;SDS011;19292;51.532;7.650;2024-01-11T01:35:49;6.35;;;4.97;;
32934;SDS011;19292;51.532;7.650;2024-01-11T01:38:17;6.03;;;4.30;;
32934;SDS011;19292;51.532;7.650;2024-01-11T01:40:43;9.48;;;4.47;;
32934;SDS011;19292;51.532;7.650;2024-01-11T01:43:11;6.00;;;3.67;;
32934;SDS011;19292;51.532;7.650;2024-01-11T01:45:38;2.25;;;2.15;;
32934;SDS011;19292;51.532;7.650;2024-01-11T01:48:07;2.60;;;2.25;;
32934;SDS011;19292;51.532;7.650;2024-01-11T01:50:35;10.32;;;4.57;;
32934;SDS011;19292;51.532;7.650;2024-01-11T01:53:02;5.38;;;4.60;;
32934;SDS011;19292;51.532;7.650;2024-01-11T01:55:28;5.40;;;4.90;;
32934;SDS011;19292;51.532;7.650;2024-01-11T01:57:56;4.53;;;4.07;;
32934;SDS011;19292;51.532;7.650;2024-01-11T02:00:26;7.10;;;5.78;;
32934;SDS011;19292;51.532;7.650;2024-01-11T02:02:52;8.40;;;3.42;;
32934;SDS011;19292;51.532;7.650;2024-01-11T02:05:19;3.40;;;3.20;;
32934;SDS011;19292;51.532;7.650;2024-01-11T02:07:45;4.50;;;4.20;;
32934;SDS011;19292;51.532;7.650;2024-01-11T02:10:10;3.42;;;3.05;;
32934;SDS011;19292;51.532;7.650;2024-01-11T02:12:36;5.90;;;5.05;;
32934;SDS011;19292;51.532;7.650;2024-01-11T02:15:05;3.50;;;3.30;;
32934;SDS011;19292;51.532;7.650;2024-01-11T02:17:33;7.55;;;5.40;;
32934;SDS011;19292;51.532;7.650;2024-01-11T02:20:06;3.33;;;2.00;;
32934;SDS011;19292;51.532;7.650;2024-01-11T02:22:38;4.32;;;3.97;;
32934;SDS011;19292;51.532;7.650;2024-01-11T02:25:09;2.90;;;2.70;;
32934;SDS011;19292;51.532;7.650;2024-01-11T02:27:45;14.98;;;5.72;;
32934;SDS011;19292;51.532;7.650;2024-01-11T02:32:43;5.25;;;4.75;;
32934;SDS011;19292;51.532;7.650;2024-01-11T02:35:12;8.77;;;4.20;;
32934;SDS011;19292;51.532;7.650;2024-01-11T02:37:38;9.30;;;5.13;;
32934;SDS011;19292;51.532;7.650;2024-01-11T02:40:05;7.72;;;6.65;;
32934;SDS011;19292;51.532;7.650;2024-01-11T02:42:34;2.47;;;2.35;;
32934;SDS011;19292;51.532;7.650;2024-01-11T02:45:00;4.05;;;3.67;;
32934;SDS011;19292;51.532;7.650;2024-01-11T02:47:32;5.95;;;4.70;;
32934;SDS011;19292;51.532;7.650;2024-01-11T02:49:59;5.97;;;3.78;;
32934;SDS011;19292;51.532;7.650;2024-01-11T02:52:27;2.40;;;2.30;;
32934;SDS011;19292;51.532;7.650;2024-01-11T02:54:53;3.75;;;2.97;;
32934;SDS011;19292;51.532;7.650;2024-01-11T02:57:18;4.80;;;4.40;;
32934;SDS011;19292;51.532;7.650;2024-01-11T02:59:46;12.73;;;2.63;;
32934;SDS011;19292;51.532;7.650;2024-01-11T03:02:11;3.75;;;3.55;;
32934;SDS011;19292;51.532;7.650;2024-01-11T03:04:39;3.22;;;2.75;;
32934;SDS011;19292;51.532;7.650;2024-01-11T03:07:04;3.63;;;3.30;;
32934;SDS011;19292;51.532;7.650;2024-01-11T03:09:29;7.57;;;4.78;;
32934;SDS011;19292;51.532;7.650;2024-01-11T03:11:58;4.55;;;4.18;;
32934;SDS011;19292;51.532;7.650;2024-01-11T03:14:23;2.05;;;1.95;;
32934;SDS011;19292;51.532;7.650;2024-01-11T03:16:54;4.43;;;3.28;;
32934;SDS011;19292;51.532;7.650;2024-01-11T03:19:19;11.40;;;5.63;;
32934;SDS011;19292;51.532;7.650;2024-01-11T03:21:47;12.60;;;6.20;;
32934;SDS011;19292;51.532;7.650;2024-01-11T03:24:15;4.28;;;3.90;;
32934;SDS011;19292;51.532;7.650;2024-01-11T03:26:40;12.98;;;7.32;;
32934;SDS011;19292;51.532;7.650;2024-01-11T03:29:08;9.52;;;8.38;;
32934;SDS011;19292;51.532;7.650;2024-01-11T03:31:36;7.10;;;2.67;;
32934;SDS011;19292;51.532;7.650;2024-01-11T03:34:09;2.47;;;2.38;;
32934;SDS011;19292;51.532;7.650;2024-01-11T03:36:37;4.75;;;3.97;;
32934;SDS011;19292;51.532;7.650;2024-01-11T03:39:06;12.88;;;4.68;;
32934;SDS011;19292;51.532;7.650;2024-01-11T03:41:34;8.82;;;4.72;;
32934;SDS011;19292;51.532;7.650;2024-01-11T03:44:02;7.45;;;3.53;;
32934;SDS011;19292;51.532;7.650;2024-01-11T03:46:30;8.23;;;4.60;;
32934;SDS011;19292;51.532;7.650;2024-01-11T03:48:55;6.13;;;5.15;;
32934;SDS011;19292;51.532;7.650;2024-01-11T03:51:27;7.03;;;5.50;;
32934;SDS011;19292;51.532;7.650;2024-01-11T03:53:52;3.55;;;3.22;;
32934;SDS011;19292;51.532;7.650;2024-01-11T03:56:23;3.20;;;2.80;;
32934;SDS011;19292;51.532;7.650;2024-01-11T03:58:48;3.72;;;3.53;;
32934;SDS011;19292;51.532;7.650;2024-01-11T04:01:15;5.70;;;5.13;;
32934;SDS011;19292;51.532;7.650;2024-01-11T04:03:41;5.43;;;4.75;;
32934;SDS011;19292;51.532;7.650;2024-01-11T04:06:08;4.95;;;4.55;;
32934;SDS011;19292;51.532;7.650;2024-01-11T04:08:34;3.42;;;3.13;;
32934;SDS011;19292;51.532;7.650;2024-01-11T04:11:02;4.50;;;4.10;;
32934;SDS011;19292;51.532;7.650;2024-01-11T04:13:29;10.43;;;5.95;;
32934;SDS011;19292;51.532;7.650;2024-01-11T04:15:56;4.50;;;4.20;;
32934;SDS011;19292;51.532;7.650;2024-01-11T04:18:22;3.92;;;3.47;;
32934;SDS011;19292;51.532;7.650;2024-01-11T04:20:52;5.97;;;4.63;;
32934;SDS011;19292;51.532;7.650;2024-01-11T04:23:17;5.80;;;4.90;;
32934;SDS011;19292;51.532;7.650;2024-01-11T04:25:45;4.20;;;3.67;;
32934;SDS011;19292;51.532;7.650;2024-01-11T04:28:10;5.32;;;4.50;;
32934;SDS011;19292;51.532;7.650;2024-01-11T04:30:36;7.40;;;5.30;;
32934;SDS011;19292;51.532;7.650;2024-01-11T04:33:01;3.55;;;3.05;;
32934;SDS011;19292;51.532;7.650;2024-01-11T04:35:29;6.85;;;3.65;;
32934;SDS011;19292;51.532;7.650;2024-01-11T04:37:54;2.75;;;2.60;;
32934;SDS011;19292;51.532;7.650;2024-01-11T04:40:19;3.25;;;2.17;;
32934;SDS011;19292;51.532;7.650;2024-01-11T04:42:45;3.40;;;3.20;;
32934;SDS011;19292;51.532;7.650;2024-01-11T04:45:10;6.80;;;5.07;;
32934;SDS011;19292;51.532;7.650;2024-01-11T04:47:35;12.15;;;7.18;;
32934;SDS011;19292;51.532;7.650;2024-01-11T04:50:06;4.22;;;3.92;;
32934;SDS011;19292;51.532;7.650;2024-01-11T04:52:31;5.40;;;4.45;;
32934;SDS011;19292;51.532;7.650;2024-01-11T04:54:59;7.30;;;6.38;;
32934;SDS011;19292;51.532;7.650;2024-01-11T04:57:25;6.05;;;5.65;;
32934;SDS011;19292;51.532;7.650;2024-01-11T04:59:50;5.18;;;4.32;;
32934;SDS011;19292;51.532;7.650;2024-01-11T05:02:20;5.38;;;4.90;;
32934;SDS011;19292;51.532;7.650;2024-01-11T05:04:45;5.75;;;5.25;;
32934;SDS011;19292;51.532;7.650;2024-01-11T05:07:11;5.43;;;4.22;;
32934;SDS011;19292;51.532;7.650;2024-01-11T05:09:38;3.60;;;3.25;;
32934;SDS011;19292;51.532;7.650;2024-01-11T05:12:04;6.65;;;5.93;;
32934;SDS011;19292;51.532;7.650;2024-01-11T05:14:31;4.85;;;4.35;;
32934;SDS011;19292;51.532;7.650;2024-01-11T05:16:59;6.10;;;5.53;;
32934;SDS011;19292;51.532;7.650;2024-01-11T05:19:25;7.90;;;5.10;;
32934;SDS011;19292;51.532;7.650;2024-01-11T05:21:51;4.38;;;3.88;;
32934;SDS011;19292;51.532;7.650;2024-01-11T05:24:18;3.60;;;3.40;;
32934;SDS011;19292;51.532;7.650;2024-01-11T05:26:46;4.95;;;4.40;;
32934;SDS011;19292;51.532;7.650;2024-01-11T05:29:11;6.20;;;5.78;;
32934;SDS011;19292;51.532;7.650;2024-01-11T05:31:41;3.78;;;3.47;;
32934;SDS011;19292;51.532;7.650;2024-01-11T05:34:06;2.53;;;2.38;;
32934;SDS011;19292;51.532;7.650;2024-01-11T05:36:31;6.03;;;5.53;;
32934;SDS011;19292;51.532;7.650;2024-01-11T05:38:57;5.95;;;5.40;;
32934;SDS011;19292;51.532;7.650;2024-01-11T05:41:22;4.90;;;4.43;;
32934;SDS011;19292;51.532;7.650;2024-01-11T05:43:47;4.68;;;4.25;;
32934;SDS011;19292;51.532;7.650;2024-01-11T05:46:13;7.70;;;4.90;;
32934;SDS011;19292;51.532;7.650;2024-01-11T05:48:40;3.60;;;2.72;;
32934;SDS011;19292;51.532;7.650;2024-01-11T05:51:07;6.07;;;4.88;;
32934;SDS011;19292;51.532;7.650;2024-01-11T05:53:35;10.73;;;5.07;;
32934;SDS011;19292;51.532;7.650;2024-01-11T05:56:00;4.03;;;3.47;;
32934;SDS011;19292;51.532;7.650;2024-01-11T05:58:26;6.10;;;5.65;;
32934;SDS011;19292;51.532;7.650;2024-01-11T06:00:51;5.10;;;3.05;;
32934;SDS011;19292;51.532;7.650;2024-01-11T06:03:17;6.00;;;5.28;;
32934;SDS011;19292;51.532;7.650;2024-01-11T06:05:42;14.75;;;6.88;;
32934;SDS011;19292;51.532;7.650;2024-01-11T06:08:10;12.50;;;5.53;;
32934;SDS011;19292;51.532;7.650;2024-01-11T06:10:35;4.53;;;4.20;;
32934;SDS011;19292;51.532;7.650;2024-01-11T06:13:05;3.03;;;2.83;;
32934;SDS011;19292;51.532;7.650;2024-01-11T06:15:31;10.55;;;6.75;;
32934;SDS011;19292;51.532;7.650;2024-01-11T06:17:57;4.65;;;4.40;;
32934;SDS011;19292;51.532;7.650;2024-01-11T06:20:22;6.22;;;5.50;;
32934;SDS011;19292;51.532;7.650;2024-01-11T06:22:50;3.47;;;3.20;;
32934;SDS011;19292;51.532;7.650;2024-01-11T06:25:15;2.47;;;2.20;;
32934;SDS011;19292;51.532;7.650;2024-01-11T06:27:42;6.80;;;5.85;;
32934;SDS011;19292;51.532;7.650;2024-01-11T06:30:09;6.22;;;4.25;;
32934;SDS011;19292;51.532;7.650;2024-01-11T06:32:35;3.67;;;3.35;;
32934;SDS011;19292;51.532;7.650;2024-01-11T06:35:01;6.57;;;4.10;;
32934;SDS011;19292;51.532;7.650;2024-01-11T06:37:29;5.88;;;4.38;;
32934;SDS011;19292;51.532;7.650;2024-01-11T06:39:55;2.67;;;2.50;;
32934;SDS011;19292;51.532;7.650;2024-01-11T06:42:20;6.63;;;5.93;;
32934;SDS011;19292;51.532;7.650;2024-01-11T06:44:46;6.18;;;5.57;;
32934;SDS011;19292;51.532;7.650;2024-01-11T06:47:11;4.18;;;3.85;;
32934;SDS011;19292;51.532;7.650;2024-01-11T06:49:39;8.23;;;7.45;;
32934;SDS011;19292;51.532;7.650;2024-01-11T06:52:05;4.22;;;3.75;;
32934;SDS011;19292;51.532;7.650;2024-01-11T06:54:30;7.57;;;4.97;;
32934;SDS011;19292;51.532;7.650;2024-01-11T06:56:58;7.07;;;5.00;;
32934;SDS011;19292;51.532;7.650;2024-01-11T06:59:23;7.32;;;3.55;;
32934;SDS011;19292;51.532;7.650;2024-01-11T07:01:49;5.93;;;5.32;;
32934;SDS011;19292;51.532;7.650;2024-01-11T07:04:17;9.40;;;4.32;;
32934;SDS011;19292;51.532;7.650;2024-01-11T07:06:45;7.38;;;6.18;;
32934;SDS011;19292;51.532;7.650;2024-01-11T07:09:15;3.47;;;3.22;;
32934;SDS011;19292;51.532;7.650;2024-01-11T07:11:42;8.20;;;7.03;;
32934;SDS011;19292;51.532;7.650;2024-01-11T07:14:09;4.30;;;4.00;;
32934;SDS011;19292;51.532;7.650;2024-01-11T07:16:35;3.13;;;2.78;;
32934;SDS011;19292;51.532;7.650;2024-01-11T07:19:00;6.18;;;3.72;;
32934;SDS011;19292;51.532;7.650;2024-01-11T07:21:26;4.95;;;4.43;;
32934;SDS011;19292;51.532;7.650;2024-01-11T07:23:56;4.82;;;4.38;;
32934;SDS011;19292;51.532;7.650;2024-01-11T07:26:22;6.97;;;6.28;;
32934;SDS011;19292;51.532;7.650;2024-01-11T07:28:48;5.30;;;4.85;;
32934;SDS011;19292;51.532;7.650;2024-01-11T07:31:14;14.13;;;5.55;;
32934;SDS011;19292;51.532;7.650;2024-01-11T07:33:41;10.00;;;4.63;;
32934;SDS011;19292;51.532;7.650;2024-01-11T07:36:09;9.20;;;6.30;;
32934;SDS011;19292;51.532;7.650;2024-01-11T07:38:35;4.53;;;4.03;;
32934;SDS011;19292;51.532;7.650;2024-01-11T07:41:03;2.30;;;2.20;;
32934;SDS011;19292;51.532;7.650;2024-01-11T07:43:28;4.32;;;3.88;;
32934;SDS011;19292;51.532;7.650;2024-01-11T07:45:54;3.45;;;2.80;;
32934;SDS011;19292;51.532;7.650;2024-01-11T07:48:21;6.40;;;4.43;;
32934;SDS011;19292;51.532;7.650;2024-01-11T07:50:49;4.70;;;4.20;;
32934;SDS011;19292;51.532;7.650;2024-01-11T07:53:17;6.30;;;4.55;;
32934;SDS011;19292;51.532;7.650;2024-01-11T07:55:42;3.63;;;3.33;;
32934;SDS011;19292;51.532;7.650;2024-01-11T07:58:08;3.72;;;3.42;;
32934;SDS011;19292;51.532;7.650;2024-01-11T08:00:36;11.38;;;4.18;;
32934;SDS011;19292;51.532;7.650;2024-01-11T08:03:01;4.72;;;4.43;;
32934;SDS011;19292;51.532;7.650;2024-01-11T08:05:28;2.03;;;1.92;;
32934;SDS011;19292;51.532;7.650;2024-01-11T08:07:55;3.80;;;3.55;;
32934;SDS011;19292;51.532;7.650;2024-01-11T08:10:20;13.85;;;6.80;;
32934;SDS011;19292;51.532;7.650;2024-01-11T08:12:50;6.25;;;4.18;;
32934;SDS011;19292;51.532;7.650;2024-01-11T08:15:17;7.25;;;4.18;;
32934;SDS011;19292;51.532;7.650;2024-01-11T08:17:45;4.78;;;4.53;;
32934;SDS011;19292;51.532;7.650;2024-01-11T08:20:11;6.25;;;5.82;;
32934;SDS011;19292;51.532;7.650;2024-01-11T08:22:41;8.75;;;5.32;;
32934;SDS011;19292;51.532;7.650;2024-01-11T08:25:08;5.05;;;4.68;;
32934;SDS011;19292;51.532;7.650;2024-01-11T08:27:36;4.70;;;4.20;;
32934;SDS011;19292;51.532;7.650;2024-01-11T08:30:04;3.90;;;3.63;;
32934;SDS011;19292;51.532;7.650;2024-01-11T08:32:30;3.97;;;3.70;;
32934;SDS011;19292;51.532;7.650;2024-01-11T08:34:56;9.27;;;6.00;;
32934;SDS011;19292;51.532;7.650;2024-01-11T08:37:22;6.18;;;5.40;;
32934;SDS011;19292;51.532;7.650;2024-01-11T08:39:48;4.07;;;3.58;;
32934;SDS011;19292;51.532;7.650;2024-01-11T08:42:15;4.47;;;3.58;;
32934;SDS011;19292;51.532;7.650;2024-01-11T08:44:41;3.42;;;2.40;;
32934;SDS011;19292;51.532;7.650;2024-01-11T08:47:09;5.72;;;5.20;;
32934;SDS011;19292;51.532;7.650;2024-01-11T08:49:40;6.38;;;5.22;;
32934;SDS011;19292;51.532;7.650;2024-01-11T08:52:05;4.25;;;3.67;;
32934;SDS011;19292;51.532;7.650;2024-01-11T08:54:34;5.18;;;4.75;;
32934;SDS011;19292;51.532;7.650;2024-01-11T08:57:02;6.15;;;3.50;;
32934;SDS011;19292;51.532;7.650;2024-01-11T08:59:28;7.30;;;5.70;;
32934;SDS011;19292;51.532;7.650;2024-01-11T09:01:53;7.05;;;6.28;;
32934;SDS011;19292;51.532;7.650;2024-01-11T09:04:19;6.72;;;6.22;;
32934;SDS011;19292;51.532;7.650;2024-01-11T09:06:46;4.30;;;4.03;;
32934;SDS011;19292;51.532;7.650;2024-01-11T09:09:12;3.83;;;3.58;;
32934;SDS011;19292;51.532;7.650;2024-01-11T09:11:42;5.53;;;5.10;;
32934;SDS011;19292;51.532;7.650;2024-01-11T09:14:09;5.93;;;4.03;;
32934;SDS011;19292;51.532;7.650;2024-01-11T09:16:41;4.68;;;3.47;;
32934;SDS011;19292;51.532;7.650;2024-01-11T09:19:06;9.07;;;7.57;;
32934;SDS011;19292;51.532;7.650;2024-01-11T09:21:31;6.88;;;5.50;;
32934;SDS011;19292;51.532;7.650;2024-01-11T09:23:57;6.80;;;5.03;;
32934;SDS011;19292;51.532;7.650;2024-01-11T09:26:24;8.93;;;7.72;;
32934;SDS011;19292;51.532;7.650;2024-01-11T09:28:50;9.90;;;6.25;;
32934;SDS011;19292;51.532;7.650;2024-01-11T09:31:15;10.38;;;5.95;;
32934;SDS011;19292;51.532;7.650;2024-01-11T09:33:40;12.30;;;10.65;;
32934;SDS011;19292;51.532;7.650;2024-01-11T09:36:10;10.20;;;7.97;;
32934;SDS011;19292;51.532;7.650;2024-01-11T09:38:40;17.85;;;8.32;;
32934;SDS011;19292;51.532;7.650;2024-01-11T09:41:07;7.65;;;6.15;;
32934;SDS011;19292;51.532;7.650;2024-01-11T09:43:34;13.55;;;6.10;;
32934;SDS011;19292;51.532;7.650;2024-01-11T09:46:02;9.10;;;7.93;;
32934;SDS011;19292;51.532;7.650;2024-01-11T09:48:34;8.63;;;6.53;;
32934;SDS011;19292;51.532;7.650;2024-01-11T09:51:01;6.65;;;4.65;;
32934;SDS011;19292;51.532;7.650;2024-01-11T09:53:32;14.82;;;7.30;;
32934;SDS011;19292;51.532;7.650;2024-01-11T09:55:58;11.07;;;7.07;;
32934;SDS011;19292;51.532;7.650;2024-01-11T09:58:27;9.38;;;6.78;;
32934;SDS011;19292;51.532;7.650;2024-01-11T10:00:55;8.68;;;6.40;;
32934;SDS011;19292;51.532;7.650;2024-01-11T10:03:24;11.27;;;7.43;;
32934;SDS011;19292;51.532;7.650;2024-01-11T10:05:54;10.90;;;8.25;;
32934;SDS011;19292;51.532;7.650;2024-01-11T10:08:24;7.95;;;7.28;;
32934;SDS011;19292;51.532;7.650;2024-01-11T10:11:00;8.27;;;7.45;;
32934;SDS011;19292;51.532;7.650;2024-01-11T10:13:29;13.15;;;8.65;;
32934;SDS011;19292;51.532;7.650;2024-01-11T10:16:08;13.57;;;11.18;;
32934;SDS011;19292;51.532;7.650;2024-01-11T10:18:38;8.35;;;6.95;;
32934;SDS011;19292;51.532;7.650;2024-01-11T10:21:03;11.80;;;9.25;;
32934;SDS011;19292;51.532;7.650;2024-01-11T10:23:29;17.60;;;9.98;;
32934;SDS011;19292;51.532;7.650;2024-01-11T10:25:55;12.77;;;11.00;;
32934;SDS011;19292;51.532;7.650;2024-01-11T10:28:22;10.23;;;8.40;;
32934;SDS011;19292;51.532;7.650;2024-01-11T10:30:48;12.98;;;10.23;;
32934;SDS011;19292;51.532;7.650;2024-01-11T10:33:15;17.80;;;12.95;;
32934;SDS011;19292;51.532;7.650;2024-01-11T10:35:47;8.25;;;7.53;;
32934;SDS011;19292;51.532;7.650;2024-01-11T10:38:18;10.38;;;7.03;;
32934;SDS011;19292;51.532;7.650;2024-01-11T10:40:43;15.05;;;9.43;;
32934;SDS011;19292;51.532;7.650;2024-01-11T10:43:13;11.98;;;7.97;;
32934;SDS011;19292;51.532;7.650;2024-01-11T10:45:40;13.23;;;8.18;;
32934;SDS011;19292;51.532;7.650;2024-01-11T10:48:08;10.98;;;9.27;;
32934;SDS011;19292;51.532;7.650;2024-01-11T10:50:44;12.98;;;8.95;;
32934;SDS011;19292;51.532;7.650;2024-01-11T10:56:15;12.38;;;10.65;;
32934;SDS011;19292;51.532;7.650;2024-01-11T10:58:42;12.75;;;10.38;;
32934;SDS011;19292;51.532;7.650;2024-01-11T11:01:11;23.45;;;10.45;;
32934;SDS011;19292;51.532;7.650;2024-01-11T11:03:38;17.52;;;9.55;;
32934;SDS011;19292;51.532;7.650;2024-01-11T11:06:04;14.77;;;9.93;;
32934;SDS011;19292;51.532;7.650;2024-01-11T11:08:33;14.23;;;7.38;;
32934;SDS011;19292;51.532;7.650;2024-01-11T11:11:02;12.90;;;8.85;;
32934;SDS011;19292;51.532;7.650;2024-01-11T11:13:31;15.73;;;9.98;;
32934;SDS011;19292;51.532;7.650;2024-01-11T11:15:57;19.02;;;10.75;;
32934;SDS011;19292;51.532;7.650;2024-01-11T11:18:23;20.02;;;11.73;;
32934;SDS011;19292;51.532;7.650;2024-01-11T11:20:49;18.08;;;9.70;;
32934;SDS011;19292;51.532;7.650;2024-01-11T11:23:17;13.48;;;10.38;;
32934;SDS011;19292;51.532;7.650;2024-01-11T11:28:15;22.10;;;10.05;;
32934;SDS011;19292;51.532;7.650;2024-01-11T11:30:43;19.17;;;11.38;;
32934;SDS011;19292;51.532;7.650;2024-01-11T11:33:10;16.30;;;10.25;;
32934;SDS011;19292;51.532;7.650;2024-01-11T11:35:36;14.30;;;10.05;;
32934;SDS011;19292;51.532;7.650;2024-01-11T11:38:02;16.67;;;8.98;;
32934;SDS011;19292;51.532;7.650;2024-01-11T11:40:37;16.77;;;9.35;;
32934;SDS011;19292;51.532;7.650;2024-01-11T11:43:07;14.00;;;10.48;;
32934;SDS011;19292;51.532;7.650;2024-01-11T11:45:33;15.80;;;9.98;;
32934;SDS011;19292;51.532;7.650;2024-01-11T11:47:58;17.20;;;11.85;;
32934;SDS011;19292;51.532;7.650;2024-01-11T11:50:24;16.23;;;9.60;;
32934;SDS011;19292;51.532;7.650;2024-01-11T11:52:58;19.02;;;11.23;;
32934;SDS011;19292;51.532;7.650;2024-01-11T11:55:25;23.55;;;10.40;;
32934;SDS011;19292;51.532;7.650;2024-01-11T11:57:53;16.00;;;8.55;;
32934;SDS011;19292;51.532;7.650;2024-01-11T12:00:19;18.08;;;9.32;;
32934;SDS011;19292;51.532;7.650;2024-01-11T12:02:47;15.85;;;10.18;;
32934;SDS011;19292;51.532;7.650;2024-01-11T12:05:18;21.02;;;10.70;;
32934;SDS011;19292;51.532;7.650;2024-01-11T12:07:44;12.40;;;8.18;;
32934;SDS011;19292;51.532;7.650;2024-01-11T12:10:14;21.50;;;12.35;;
32934;SDS011;19292;51.532;7.650;2024-01-11T12:12:41;12.45;;;10.43;;
32934;SDS011;19292;51.532;7.650;2024-01-11T12:15:07;14.45;;;9.90;;
32934;SDS011;19292;51.532;7.650;2024-01-11T12:17:36;12.13;;;9.45;;
32934;SDS011;19292;51.532;7.650;2024-01-11T12:20:03;9.00;;;7.45;;
32934;SDS011;19292;51.532;7.650;2024-01-11T12:22:29;13.50;;;9.27;;
32934;SDS011;19292;51.532;7.650;2024-01-11T12:24:57;16.73;;;10.38;;
32934;SDS011;19292;51.532;7.650;2024-01-11T12:27:22;12.65;;;8.82;;
32934;SDS011;19292;51.532;7.650;2024-01-11T12:29:52;15.05;;;9.43;;
32934;SDS011;19292;51.532;7.650;2024-01-11T12:32:18;15.73;;;10.02;;
32934;SDS011;19292;51.532;7.650;2024-01-11T12:34:46;15.23;;;8.77;;
32934;SDS011;19292;51.532;7.650;2024-01-11T12:37:16;19.08;;;10.75;;
32934;SDS011;19292;51.532;7.650;2024-01-11T12:39:44;14.95;;;8.77;;
32934;SDS011;19292;51.532;7.650;2024-01-11T12:42:12;17.67;;;12.18;;
32934;SDS011;19292;51.532;7.650;2024-01-11T12:44:40;13.68;;;10.10;;
32934;SDS011;19292;51.532;7.650;2024-01-11T12:47:08;19.75;;;9.73;;
32934;SDS011;19292;51.532;7.650;2024-01-11T12:49:34;11.48;;;7.22;;
32934;SDS011;19292;51.532;7.650;2024-01-11T12:51:59;16.70;;;9.50;;
32934;SDS011;19292;51.532;7.650;2024-01-11T12:54:27;8.82;;;5.63;;
32934;SDS011;19292;51.532;7.650;2024-01-11T12:56:53;10.68;;;9.25;;
32934;SDS011;19292;51.532;7.650;2024-01-11T12:59:18;13.32;;;8.10;;
32934;SDS011;19292;51.532;7.650;2024-01-11T13:01:43;16.27;;;8.73;;
32934;SDS011;19292;51.532;7.650;2024-01-11T13:04:09;16.45;;;9.13;;
32934;SDS011;19292;51.532;7.650;2024-01-11T13:06:37;12.82;;;9.68;;
32934;SDS011;19292;51.532;7.650;2024-01-11T13:09:05;8.82;;;7.30;;
32934;SDS011;19292;51.532;7.650;2024-01-11T13:11:33;14.70;;;9.20;;
32934;SDS011;19292;51.532;7.650;2024-01-11T13:14:03;12.05;;;8.52;;
32934;SDS011;19292;51.532;7.650;2024-01-11T13:16:33;9.73;;;6.03;;
32934;SDS011;19292;51.532;7.650;2024-01-11T13:18:58;6.72;;;6.03;;
32934;SDS011;19292;51.532;7.650;2024-01-11T13:21:26;6.68;;;5.32;;
32934;SDS011;19292;51.532;7.650;2024-01-11T13:23:54;8.68;;;5.90;;
32934;SDS011;19292;51.532;7.650;2024-01-11T13:26:19;8.60;;;5.78;;
32934;SDS011;19292;51.532;7.650;2024-01-11T13:28:44;4.15;;;3.05;;
32934;SDS011;19292;51.532;7.650;2024-01-11T13:31:17;5.13;;;3.70;;
32934;SDS011;19292;51.532;7.650;2024-01-11T13:33:42;7.43;;;5.80;;
32934;SDS011;19292;51.532;7.650;2024-01-11T13:36:07;10.50;;;4.47;;
32934;SDS011;19292;51.532;7.650;2024-01-11T13:38:33;4.97;;;4.47;;
32934;SDS011;19292;51.532;7.650;2024-01-11T13:41:00;8.38;;;4.80;;
32934;SDS011;19292;51.532;7.650;2024-01-11T13:43:30;4.18;;;2.90;;
32934;SDS011;19292;51.532;7.650;2024-01-11T13:45:55;5.22;;;4.72;;
32934;SDS011;19292;51.532;7.650;2024-01-11T13:48:22;6.95;;;6.20;;
32934;SDS011;19292;51.532;7.650;2024-01-11T13:50:52;7.30;;;4.90;;
32934;SDS011;19292;51.532;7.650;2024-01-11T13:53:18;9.02;;;6.40;;
32934;SDS011;19292;51.532;7.650;2024-01-11T13:55:43;6.57;;;5.75;;
32934;SDS011;19292;51.532;7.650;2024-01-11T13:58:11;5.13;;;4.40;;
32934;SDS011;19292;51.532;7.650;2024-01-11T14:00:40;8.50;;;4.05;;
32934;SDS011;19292;51.532;7.650;2024-01-11T14:03:10;5.63;;;5.03;;
32934;SDS011;19292;51.532;7.650;2024-01-11T14:05:38;5.53;;;4.82;;
32934;SDS011;19292;51.532;7.650;2024-01-11T14:08:06;4.57;;;3.13;;
32934;SDS011;19292;51.532;7.650;2024-01-11T14:10:34;4.80;;;4.40;;
32934;SDS011;19292;51.532;7.650;2024-01-11T14:13:02;3.75;;;3.38;;
32934;SDS011;19292;51.532;7.650;2024-01-11T14:15:28;10.65;;;4.68;;
32934;SDS011;19292;51.532;7.650;2024-01-11T14:17:53;7.38;;;4.90;;
32934;SDS011;19292;51.532;7.650;2024-01-11T14:20:19;5.63;;;4.47;;
32934;SDS011;19292;51.532;7.650;2024-01-11T14:22:46;7.13;;;3.67;;
32934;SDS011;19292;51.532;7.650;2024-01-11T14:25:18;4.53;;;4.10;;
32934;SDS011;19292;51.532;7.650;2024-01-11T14:27:48;6.75;;;5.10;;
32934;SDS011;19292;51.532;7.650;2024-01-11T14:30:13;5.30;;;3.83;;
32934;SDS011;19292;51.532;7.650;2024-01-11T14:32:46;4.03;;;3.15;;
32934;SDS011;19292;51.532;7.650;2024-01-11T14:35:12;6.80;;;4.00;;
32934;SDS011;19292;51.532;7.650;2024-01-11T14:37:38;6.88;;;4.82;;
32934;SDS011;19292;51.532;7.650;2024-01-11T14:40:09;12.73;;;5.32;;
32934;SDS011;19292;51.532;7.650;2024-01-11T14:42:40;4.90;;;4.50;;
32934;SDS011;19292;51.532;7.650;2024-01-11T14:45:08;4.07;;;3.70;;
32934;SDS011;19292;51.532;7.650;2024-01-11T14:47:37;2.30;;;2.13;;
32934;SDS011;19292;51.532;7.650;2024-01-11T14:50:03;2.75;;;2.63;;